sensor_id;sensor_type;location;lat;lon;timestamp;P1;durP1;ratioP1;P2;durP2;ratioP2
14100;SDS011;7127;49.372;8.166;2022-08-01T00:02:18;0.80;;;0.80;;
14100;SDS011;7127;49.372;8.166;2022-08-01T00:04:45;1.27;;;1.05;;
14100;SDS011;7127;49.372;8.166;2022-08-01T00:07:12;0.90;;;0.90;;
14100;SDS011;7127;49.372;8.166;2022-08-01T00:09:40;0.88;;;0.88;;
14100;SDS011;7127;49.372;8.166;2022-08-01T00:12:07;1.15;;;1.00;;
14100;SDS011;7127;49.372;8.166;2022-08-01T00:14:34;0.95;;;0.95;;
14100;SDS011;7127;49.372;8.166;2022-08-01T00:17:02;0.82;;;0.82;;
14100;SDS011;7127;49.372;8.166;2022-08-01T00:19:30;0.90;;;0.90;;
14100;SDS011;7127;49.372;8.166;2022-08-01T00:21:58;1.30;;;1.00;;
14100;SDS011;7127;49.372;8.166;2022-08-01T00:24:25;1.10;;;1.00;;
14100;SDS011;7127;49.372;8.166;2022-08-01T00:26:52;0.93;;;0.88;;
14100;SDS011;7127;49.372;8.166;2022-08-01T00:29:19;0.85;;;0.85;;
14100;SDS011;7127;49.372;8.166;2022-08-01T00:31:46;1.00;;;1.00;;
14100;SDS011;7127;49.372;8.166;2022-08-01T00:34:13;2.10;;;1.45;;
14100;SDS011;7127;49.372;8.166;2022-08-01T00:36:42;0.98;;;0.93;;
14100;SDS011;7127;49.372;8.166;2022-08-01T00:39:09;1.20;;;1.10;;
14100;SDS011;7127;49.372;8.166;2022-08-01T00:41:36;0.70;;;0.70;;
14100;SDS011;7127;49.372;8.166;2022-08-01T00:44:03;1.20;;;1.10;;
14100;SDS011;7127;49.372;8.166;2022-08-01T00:46:31;1.13;;;0.93;;
14100;SDS011;7127;49.372;8.166;2022-08-01T00:48:59;1.02;;;0.93;;
14100;SDS011;7127;49.372;8.166;2022-08-01T00:51:27;0.85;;;0.85;;
14100;SDS011;7127;49.372;8.166;2022-08-01T00:53:55;1.20;;;0.90;;
14100;SDS011;7127;49.372;8.166;2022-08-01T00:56:24;0.60;;;0.60;;
14100;SDS011;7127;49.372;8.166;2022-08-01T00:58:52;1.00;;;0.60;;
14100;SDS011;7127;49.372;8.166;2022-08-01T01:01:20;1.00;;;0.85;;
14100;SDS011;7127;49.372;8.166;2022-08-01T01:03:48;1.95;;;0.90;;
14100;SDS011;7127;49.372;8.166;2022-08-01T01:06:26;0.80;;;0.80;;
14100;SDS011;7127;49.372;8.166;2022-08-01T01:11:54;0.70;;;0.70;;
14100;SDS011;7127;49.372;8.166;2022-08-01T01:14:30;0.65;;;0.65;;
14100;SDS011;7127;49.372;8.166;2022-08-01T01:17:04;0.70;;;0.70;;
14100;SDS011;7127;49.372;8.166;2022-08-01T01:19:35;0.73;;;0.57;;
14100;SDS011;7127;49.372;8.166;2022-08-01T01:22:17;0.73;;;0.73;;
14100;SDS011;7127;49.372;8.166;2022-08-01T01:24:52;0.90;;;0.90;;
14100;SDS011;7127;49.372;8.166;2022-08-01T01:27:36;0.70;;;0.70;;
14100;SDS011;7127;49.372;8.166;2022-08-01T01:30:12;0.70;;;0.70;;
14100;SDS011;7127;49.372;8.166;2022-08-01T01:32:41;1.08;;;0.90;;
14100;SDS011;7127;49.372;8.166;2022-08-01T01:35:14;0.63;;;0.63;;
14100;SDS011;7127;49.372;8.166;2022-08-01T01:37:46;0.77;;;0.77;;
14100;SDS011;7127;49.372;8.166;2022-08-01T01:40:16;0.80;;;0.80;;
14100;SDS011;7127;49.372;8.166;2022-08-01T01:42:46;0.97;;;0.80;;
14100;SDS011;7127;49.372;8.166;2022-08-01T01:45:15;0.98;;;0.90;;
14100;SDS011;7127;49.372;8.166;2022-08-01T01:47:43;0.70;;;0.70;;
14100;SDS011;7127;49.372;8.166;2022-08-01T01:50:11;0.70;;;0.70;;
14100;SDS011;7127;49.372;8.166;2022-08-01T01:52:39;0.88;;;0.70;;
14100;SDS011;7127;49.372;8.166;2022-08-01T01:55:08;0.60;;;0.52;;
14100;SDS011;7127;49.372;8.166;2022-08-01T01:57:36;0.80;;;0.80;;
14100;SDS011;7127;49.372;8.166;2022-08-01T02:00:07;0.73;;;0.73;;
14100;SDS011;7127;49.372;8.166;2022-08-01T02:02:36;1.67;;;0.93;;
14100;SDS011;7127;49.372;8.166;2022-08-01T02:05:04;0.75;;;0.75;;
14100;SDS011;7127;49.372;8.166;2022-08-01T02:07:32;0.90;;;0.90;;
14100;SDS011;7127;49.372;8.166;2022-08-01T02:10:01;0.75;;;0.75;;
14100;SDS011;7127;49.372;8.166;2022-08-01T02:12:29;0.80;;;0.67;;
14100;SDS011;7127;49.372;8.166;2022-08-01T02:14:59;1.52;;;0.63;;
14100;SDS011;7127;49.372;8.166;2022-08-01T02:17:28;0.60;;;0.60;;
14100;SDS011;7127;49.372;8.166;2022-08-01T02:19:58;0.80;;;0.80;;
14100;SDS011;7127;49.372;8.166;2022-08-01T02:22:27;0.68;;;0.68;;
14100;SDS011;7127;49.372;8.166;2022-08-01T02:24:59;1.10;;;1.00;;
14100;SDS011;7127;49.372;8.166;2022-08-01T02:27:30;0.70;;;0.70;;
14100;SDS011;7127;49.372;8.166;2022-08-01T02:30:01;2.03;;;1.00;;
14100;SDS011;7127;49.372;8.166;2022-08-01T02:32:31;0.60;;;0.60;;
14100;SDS011;7127;49.372;8.166;2022-08-01T02:35:04;0.80;;;0.80;;
14100;SDS011;7127;49.372;8.166;2022-08-01T02:37:36;0.70;;;0.70;;
14100;SDS011;7127;49.372;8.166;2022-08-01T02:40:05;1.00;;;0.73;;
14100;SDS011;7127;49.372;8.166;2022-08-01T02:42:35;0.80;;;0.80;;
14100;SDS011;7127;49.372;8.166;2022-08-01T02:45:05;1.33;;;1.00;;
14100;SDS011;7127;49.372;8.166;2022-08-01T02:47:34;1.00;;;0.70;;
14100;SDS011;7127;49.372;8.166;2022-08-01T02:50:06;0.80;;;0.80;;
14100;SDS011;7127;49.372;8.166;2022-08-01T02:52:36;0.77;;;0.77;;
14100;SDS011;7127;49.372;8.166;2022-08-01T02:55:06;0.47;;;0.47;;
14100;SDS011;7127;49.372;8.166;2022-08-01T02:57:34;0.80;;;0.80;;
14100;SDS011;7127;49.372;8.166;2022-08-01T03:00:04;0.90;;;0.90;;
14100;SDS011;7127;49.372;8.166;2022-08-01T03:02:32;1.00;;;0.90;;
14100;SDS011;7127;49.372;8.166;2022-08-01T03:05:02;0.80;;;0.70;;
14100;SDS011;7127;49.372;8.166;2022-08-01T03:07:31;0.73;;;0.73;;
14100;SDS011;7127;49.372;8.166;2022-08-01T03:09:58;0.80;;;0.80;;
14100;SDS011;7127;49.372;8.166;2022-08-01T03:12:27;0.80;;;0.80;;
14100;SDS011;7127;49.372;8.166;2022-08-01T03:14:58;0.80;;;0.80;;
14100;SDS011;7127;49.372;8.166;2022-08-01T03:17:27;2.80;;;0.90;;
14100;SDS011;7127;49.372;8.166;2022-08-01T03:19:56;0.80;;;0.80;;
14100;SDS011;7127;49.372;8.166;2022-08-01T03:22:26;0.97;;;0.87;;
14100;SDS011;7127;49.372;8.166;2022-08-01T03:24:56;0.73;;;0.70;;
14100;SDS011;7127;49.372;8.166;2022-08-01T03:27:26;0.73;;;0.73;;
14100;SDS011;7127;49.372;8.166;2022-08-01T03:29:54;0.77;;;0.77;;
14100;SDS011;7127;49.372;8.166;2022-08-01T03:32:23;1.00;;;0.90;;
14100;SDS011;7127;49.372;8.166;2022-08-01T03:34:51;0.70;;;0.70;;
14100;SDS011;7127;49.372;8.166;2022-08-01T03:37:19;1.27;;;1.00;;
14100;SDS011;7127;49.372;8.166;2022-08-01T03:39:52;0.93;;;0.83;;
14100;SDS011;7127;49.372;8.166;2022-08-01T03:42:27;0.70;;;0.70;;
14100;SDS011;7127;49.372;8.166;2022-08-01T03:44:58;1.03;;;0.70;;
14100;SDS011;7127;49.372;8.166;2022-08-01T03:47:30;0.70;;;0.70;;
14100;SDS011;7127;49.372;8.166;2022-08-01T03:49:58;0.70;;;0.70;;
14100;SDS011;7127;49.372;8.166;2022-08-01T03:52:28;0.90;;;0.90;;
14100;SDS011;7127;49.372;8.166;2022-08-01T03:54:57;0.50;;;0.50;;
14100;SDS011;7127;49.372;8.166;2022-08-01T03:57:28;1.17;;;0.90;;
14100;SDS011;7127;49.372;8.166;2022-08-01T03:59:56;0.70;;;0.70;;
14100;SDS011;7127;49.372;8.166;2022-08-01T04:02:25;0.80;;;0.80;;
14100;SDS011;7127;49.372;8.166;2022-08-01T04:04:53;0.80;;;0.77;;
14100;SDS011;7127;49.372;8.166;2022-08-01T04:07:21;1.07;;;0.97;;
14100;SDS011;7127;49.372;8.166;2022-08-01T04:09:49;1.20;;;0.80;;
14100;SDS011;7127;49.372;8.166;2022-08-01T04:12:16;0.80;;;0.80;;
14100;SDS011;7127;49.372;8.166;2022-08-01T04:14:45;0.60;;;0.60;;
14100;SDS011;7127;49.372;8.166;2022-08-01T04:17:12;0.73;;;0.73;;
14100;SDS011;7127;49.372;8.166;2022-08-01T04:19:40;0.83;;;0.83;;
14100;SDS011;7127;49.372;8.166;2022-08-01T04:22:07;1.30;;;0.97;;
14100;SDS011;7127;49.372;8.166;2022-08-01T04:24:35;0.80;;;0.80;;
14100;SDS011;7127;49.372;8.166;2022-08-01T04:27:05;0.80;;;0.80;;
14100;SDS011;7127;49.372;8.166;2022-08-01T04:29:36;0.60;;;0.60;;
14100;SDS011;7127;49.372;8.166;2022-08-01T04:32:05;0.70;;;0.70;;
14100;SDS011;7127;49.372;8.166;2022-08-01T04:34:35;1.03;;;0.77;;
14100;SDS011;7127;49.372;8.166;2022-08-01T04:37:06;0.90;;;0.90;;
14100;SDS011;7127;49.372;8.166;2022-08-01T04:39:35;0.80;;;0.80;;
14100;SDS011;7127;49.372;8.166;2022-08-01T04:42:05;0.70;;;0.70;;
14100;SDS011;7127;49.372;8.166;2022-08-01T04:44:33;1.23;;;0.70;;
14100;SDS011;7127;49.372;8.166;2022-08-01T04:47:00;1.43;;;0.70;;
14100;SDS011;7127;49.372;8.166;2022-08-01T04:49:32;0.60;;;0.60;;
14100;SDS011;7127;49.372;8.166;2022-08-01T04:51:59;0.70;;;0.67;;
14100;SDS011;7127;49.372;8.166;2022-08-01T04:54:27;1.07;;;0.80;;
14100;SDS011;7127;49.372;8.166;2022-08-01T04:56:55;0.83;;;0.83;;
14100;SDS011;7127;49.372;8.166;2022-08-01T04:59:24;0.53;;;0.53;;
14100;SDS011;7127;49.372;8.166;2022-08-01T05:02:07;1.10;;;0.73;;
14100;SDS011;7127;49.372;8.166;2022-08-01T05:04:36;1.23;;;0.67;;
14100;SDS011;7127;49.372;8.166;2022-08-01T05:07:04;1.13;;;1.07;;
14100;SDS011;7127;49.372;8.166;2022-08-01T05:09:33;0.97;;;0.90;;
14100;SDS011;7127;49.372;8.166;2022-08-01T05:12:01;0.70;;;0.70;;
14100;SDS011;7127;49.372;8.166;2022-08-01T05:14:29;0.80;;;0.80;;
14100;SDS011;7127;49.372;8.166;2022-08-01T05:16:57;0.80;;;0.80;;
14100;SDS011;7127;49.372;8.166;2022-08-01T05:19:24;1.00;;;0.90;;
14100;SDS011;7127;49.372;8.166;2022-08-01T05:21:53;1.37;;;0.70;;
14100;SDS011;7127;49.372;8.166;2022-08-01T05:24:21;0.73;;;0.73;;
14100;SDS011;7127;49.372;8.166;2022-08-01T05:26:48;0.60;;;0.60;;
14100;SDS011;7127;49.372;8.166;2022-08-01T05:29:15;0.77;;;0.70;;
14100;SDS011;7127;49.372;8.166;2022-08-01T05:31:42;2.43;;;0.93;;
14100;SDS011;7127;49.372;8.166;2022-08-01T05:34:09;1.23;;;0.67;;
14100;SDS011;7127;49.372;8.166;2022-08-01T05:36:36;0.83;;;0.77;;
14100;SDS011;7127;49.372;8.166;2022-08-01T05:39:05;0.73;;;0.67;;
14100;SDS011;7127;49.372;8.166;2022-08-01T05:41:32;0.70;;;0.70;;
14100;SDS011;7127;49.372;8.166;2022-08-01T05:43:59;0.60;;;0.60;;
14100;SDS011;7127;49.372;8.166;2022-08-01T05:46:26;0.60;;;0.60;;
14100;SDS011;7127;49.372;8.166;2022-08-01T05:48:53;0.60;;;0.60;;
14100;SDS011;7127;49.372;8.166;2022-08-01T05:51:20;0.50;;;0.50;;
14100;SDS011;7127;49.372;8.166;2022-08-01T05:53:47;0.60;;;0.60;;
14100;SDS011;7127;49.372;8.166;2022-08-01T05:56:15;0.70;;;0.70;;
14100;SDS011;7127;49.372;8.166;2022-08-01T05:58:42;0.30;;;0.30;;
14100;SDS011;7127;49.372;8.166;2022-08-01T06:01:09;0.40;;;0.40;;
14100;SDS011;7127;49.372;8.166;2022-08-01T06:03:36;0.67;;;0.60;;
14100;SDS011;7127;49.372;8.166;2022-08-01T06:06:03;0.57;;;0.57;;
14100;SDS011;7127;49.372;8.166;2022-08-01T06:08:30;1.40;;;0.67;;
14100;SDS011;7127;49.372;8.166;2022-08-01T06:10:57;0.40;;;0.40;;
14100;SDS011;7127;49.372;8.166;2022-08-01T06:13:26;0.70;;;0.70;;
14100;SDS011;7127;49.372;8.166;2022-08-01T06:15:53;0.47;;;0.47;;
14100;SDS011;7127;49.372;8.166;2022-08-01T06:18:20;0.47;;;0.47;;
14100;SDS011;7127;49.372;8.166;2022-08-01T06:20:47;0.40;;;0.40;;
14100;SDS011;7127;49.372;8.166;2022-08-01T06:23:14;0.50;;;0.50;;
14100;SDS011;7127;49.372;8.166;2022-08-01T06:25:41;0.50;;;0.50;;
14100;SDS011;7127;49.372;8.166;2022-08-01T06:28:09;0.63;;;0.60;;
14100;SDS011;7127;49.372;8.166;2022-08-01T06:30:37;0.40;;;0.40;;
14100;SDS011;7127;49.372;8.166;2022-08-01T06:33:04;0.50;;;0.50;;
14100;SDS011;7127;49.372;8.166;2022-08-01T06:35:31;0.82;;;0.63;;
14100;SDS011;7127;49.372;8.166;2022-08-01T06:37:58;0.40;;;0.40;;
14100;SDS011;7127;49.372;8.166;2022-08-01T06:40:25;0.67;;;0.50;;
14100;SDS011;7127;49.372;8.166;2022-08-01T06:42:52;0.55;;;0.50;;
14100;SDS011;7127;49.372;8.166;2022-08-01T06:45:19;1.57;;;0.50;;
14100;SDS011;7127;49.372;8.166;2022-08-01T06:47:51;0.43;;;0.43;;
14100;SDS011;7127;49.372;8.166;2022-08-01T06:50:18;0.82;;;0.70;;
14100;SDS011;7127;49.372;8.166;2022-08-01T06:52:45;0.40;;;0.40;;
14100;SDS011;7127;49.372;8.166;2022-08-01T06:55:12;0.50;;;0.50;;
14100;SDS011;7127;49.372;8.166;2022-08-01T06:57:49;0.70;;;0.70;;
14100;SDS011;7127;49.372;8.166;2022-08-01T07:00:18;0.40;;;0.40;;
14100;SDS011;7127;49.372;8.166;2022-08-01T07:02:47;0.55;;;0.50;;
14100;SDS011;7127;49.372;8.166;2022-08-01T07:05:16;0.60;;;0.60;;
14100;SDS011;7127;49.372;8.166;2022-08-01T07:07:43;0.55;;;0.50;;
14100;SDS011;7127;49.372;8.166;2022-08-01T07:10:10;0.50;;;0.50;;
14100;SDS011;7127;49.372;8.166;2022-08-01T07:12:37;0.52;;;0.47;;
14100;SDS011;7127;49.372;8.166;2022-08-01T07:15:06;0.60;;;0.60;;
14100;SDS011;7127;49.372;8.166;2022-08-01T07:17:36;0.60;;;0.50;;
14100;SDS011;7127;49.372;8.166;2022-08-01T07:20:04;0.50;;;0.47;;
14100;SDS011;7127;49.372;8.166;2022-08-01T07:22:34;0.45;;;0.45;;
14100;SDS011;7127;49.372;8.166;2022-08-01T07:25:01;0.60;;;0.43;;
14100;SDS011;7127;49.372;8.166;2022-08-01T07:27:29;0.60;;;0.60;;
14100;SDS011;7127;49.372;8.166;2022-08-01T07:29:56;0.95;;;0.45;;
14100;SDS011;7127;49.372;8.166;2022-08-01T07:32:24;0.40;;;0.40;;
14100;SDS011;7127;49.372;8.166;2022-08-01T07:34:51;0.50;;;0.50;;
14100;SDS011;7127;49.372;8.166;2022-08-01T07:37:18;0.60;;;0.60;;
14100;SDS011;7127;49.372;8.166;2022-08-01T07:39:47;0.52;;;0.52;;
14100;SDS011;7127;49.372;8.166;2022-08-01T07:42:14;0.60;;;0.60;;
14100;SDS011;7127;49.372;8.166;2022-08-01T07:44:41;0.55;;;0.50;;
14100;SDS011;7127;49.372;8.166;2022-08-01T07:47:08;0.50;;;0.50;;
14100;SDS011;7127;49.372;8.166;2022-08-01T07:49:35;0.68;;;0.60;;
14100;SDS011;7127;49.372;8.166;2022-08-01T07:52:02;0.52;;;0.50;;
14100;SDS011;7127;49.372;8.166;2022-08-01T07:54:30;0.40;;;0.40;;
14100;SDS011;7127;49.372;8.166;2022-08-01T07:56:58;0.52;;;0.52;;
14100;SDS011;7127;49.372;8.166;2022-08-01T07:59:26;0.60;;;0.40;;
14100;SDS011;7127;49.372;8.166;2022-08-01T08:01:53;0.50;;;0.50;;
14100;SDS011;7127;49.372;8.166;2022-08-01T08:04:20;0.50;;;0.50;;
14100;SDS011;7127;49.372;8.166;2022-08-01T08:06:46;0.68;;;0.60;;
14100;SDS011;7127;49.372;8.166;2022-08-01T08:09:14;0.38;;;0.38;;
14100;SDS011;7127;49.372;8.166;2022-08-01T08:11:41;1.17;;;0.55;;
14100;SDS011;7127;49.372;8.166;2022-08-01T08:14:11;0.55;;;0.50;;
14100;SDS011;7127;49.372;8.166;2022-08-01T08:16:38;0.22;;;0.22;;
14100;SDS011;7127;49.372;8.166;2022-08-01T08:19:05;0.65;;;0.40;;
14100;SDS011;7127;49.372;8.166;2022-08-01T08:21:32;0.22;;;0.22;;
14100;SDS011;7127;49.372;8.166;2022-08-01T08:23:59;0.38;;;0.38;;
14100;SDS011;7127;49.372;8.166;2022-08-01T08:26:44;0.47;;;0.47;;
14100;SDS011;7127;49.372;8.166;2022-08-01T08:29:13;0.50;;;0.50;;
14100;SDS011;7127;49.372;8.166;2022-08-01T08:31:40;0.55;;;0.43;;
14100;SDS011;7127;49.372;8.166;2022-08-01T08:34:07;0.32;;;0.32;;
14100;SDS011;7127;49.372;8.166;2022-08-01T08:36:34;0.98;;;0.60;;
14100;SDS011;7127;49.372;8.166;2022-08-01T08:39:01;0.35;;;0.35;;
14100;SDS011;7127;49.372;8.166;2022-08-01T08:41:29;0.57;;;0.30;;
14100;SDS011;7127;49.372;8.166;2022-08-01T08:43:56;0.38;;;0.35;;
14100;SDS011;7127;49.372;8.166;2022-08-01T08:46:26;0.32;;;0.32;;
14100;SDS011;7127;49.372;8.166;2022-08-01T08:48:54;0.75;;;0.45;;
14100;SDS011;7127;49.372;8.166;2022-08-01T08:51:23;0.32;;;0.30;;
14100;SDS011;7127;49.372;8.166;2022-08-01T08:53:52;0.40;;;0.40;;
14100;SDS011;7127;49.372;8.166;2022-08-01T08:56:21;0.57;;;0.57;;
14100;SDS011;7127;49.372;8.166;2022-08-01T08:58:51;0.43;;;0.43;;
14100;SDS011;7127;49.372;8.166;2022-08-01T09:01:18;0.40;;;0.40;;
14100;SDS011;7127;49.372;8.166;2022-08-01T09:03:46;0.60;;;0.60;;
14100;SDS011;7127;49.372;8.166;2022-08-01T09:06:14;0.45;;;0.45;;
14100;SDS011;7127;49.372;8.166;2022-08-01T09:08:41;0.40;;;0.40;;
14100;SDS011;7127;49.372;8.166;2022-08-01T09:11:08;0.30;;;0.30;;
14100;SDS011;7127;49.372;8.166;2022-08-01T09:13:36;0.60;;;0.50;;
14100;SDS011;7127;49.372;8.166;2022-08-01T09:16:03;0.85;;;0.45;;
14100;SDS011;7127;49.372;8.166;2022-08-01T09:18:32;0.45;;;0.40;;
14100;SDS011;7127;49.372;8.166;2022-08-01T09:21:11;0.40;;;0.40;;
14100;SDS011;7127;49.372;8.166;2022-08-01T09:23:42;0.45;;;0.40;;
14100;SDS011;7127;49.372;8.166;2022-08-01T09:26:10;0.50;;;0.40;;
14100;SDS011;7127;49.372;8.166;2022-08-01T09:28:40;0.35;;;0.32;;
14100;SDS011;7127;49.372;8.166;2022-08-01T09:31:08;0.50;;;0.50;;
14100;SDS011;7127;49.372;8.166;2022-08-01T09:33:46;1.15;;;0.70;;
14100;SDS011;7127;49.372;8.166;2022-08-01T09:36:20;0.50;;;0.50;;
14100;SDS011;7127;49.372;8.166;2022-08-01T09:38:48;0.98;;;0.75;;
14100;SDS011;7127;49.372;8.166;2022-08-01T09:41:15;0.68;;;0.40;;
14100;SDS011;7127;49.372;8.166;2022-08-01T09:43:47;0.30;;;0.30;;
14100;SDS011;7127;49.372;8.166;2022-08-01T09:46:16;1.38;;;0.65;;
14100;SDS011;7127;49.372;8.166;2022-08-01T09:48:59;0.50;;;0.40;;
14100;SDS011;7127;49.372;8.166;2022-08-01T09:51:29;0.50;;;0.50;;
14100;SDS011;7127;49.372;8.166;2022-08-01T09:53:57;1.98;;;0.63;;
14100;SDS011;7127;49.372;8.166;2022-08-01T09:56:25;1.00;;;0.50;;
14100;SDS011;7127;49.372;8.166;2022-08-01T09:58:53;0.57;;;0.50;;
14100;SDS011;7127;49.372;8.166;2022-08-01T10:01:21;0.43;;;0.40;;
14100;SDS011;7127;49.372;8.166;2022-08-01T10:06:36;0.60;;;0.60;;
14100;SDS011;7127;49.372;8.166;2022-08-01T10:09:03;0.50;;;0.50;;
14100;SDS011;7127;49.372;8.166;2022-08-01T10:11:31;0.30;;;0.30;;
14100;SDS011;7127;49.372;8.166;2022-08-01T10:13:59;0.60;;;0.50;;
14100;SDS011;7127;49.372;8.166;2022-08-01T10:16:28;0.93;;;0.60;;
14100;SDS011;7127;49.372;8.166;2022-08-01T10:18:56;0.47;;;0.47;;
14100;SDS011;7127;49.372;8.166;2022-08-01T10:21:25;0.50;;;0.50;;
14100;SDS011;7127;49.372;8.166;2022-08-01T10:23:55;0.65;;;0.50;;
14100;SDS011;7127;49.372;8.166;2022-08-01T10:26:24;0.60;;;0.60;;
14100;SDS011;7127;49.372;8.166;2022-08-01T10:28:53;2.17;;;0.55;;
14100;SDS011;7127;49.372;8.166;2022-08-01T10:31:21;0.57;;;0.57;;
14100;SDS011;7127;49.372;8.166;2022-08-01T10:33:49;0.45;;;0.43;;
14100;SDS011;7127;49.372;8.166;2022-08-01T10:36:17;0.77;;;0.77;;
14100;SDS011;7127;49.372;8.166;2022-08-01T10:38:46;0.47;;;0.47;;
14100;SDS011;7127;49.372;8.166;2022-08-01T10:41:14;1.75;;;0.70;;
14100;SDS011;7127;49.372;8.166;2022-08-01T10:43:44;0.57;;;0.57;;
14100;SDS011;7127;49.372;8.166;2022-08-01T10:46:11;0.40;;;0.40;;
14100;SDS011;7127;49.372;8.166;2022-08-01T10:48:40;0.40;;;0.40;;
14100;SDS011;7127;49.372;8.166;2022-08-01T10:51:13;0.57;;;0.55;;
14100;SDS011;7127;49.372;8.166;2022-08-01T10:53:45;1.15;;;0.57;;
14100;SDS011;7127;49.372;8.166;2022-08-01T10:56:15;0.70;;;0.70;;
14100;SDS011;7127;49.372;8.166;2022-08-01T10:58:43;0.50;;;0.50;;
14100;SDS011;7127;49.372;8.166;2022-08-01T11:01:22;0.55;;;0.52;;
14100;SDS011;7127;49.372;8.166;2022-08-01T11:03:57;0.68;;;0.52;;
14100;SDS011;7127;49.372;8.166;2022-08-01T11:06:35;0.40;;;0.40;;
14100;SDS011;7127;49.372;8.166;2022-08-01T11:12:01;0.45;;;0.45;;
14100;SDS011;7127;49.372;8.166;2022-08-01T11:14:32;0.55;;;0.50;;
14100;SDS011;7127;49.372;8.166;2022-08-01T11:20:05;0.73;;;0.57;;
14100;SDS011;7127;49.372;8.166;2022-08-01T11:28:45;0.30;;;0.30;;
14100;SDS011;7127;49.372;8.166;2022-08-01T11:31:33;0.65;;;0.60;;
14100;SDS011;7127;49.372;8.166;2022-08-01T11:34:00;0.60;;;0.50;;
14100;SDS011;7127;49.372;8.166;2022-08-01T11:36:27;0.85;;;0.57;;
14100;SDS011;7127;49.372;8.166;2022-08-01T11:39:14;0.68;;;0.50;;
14100;SDS011;7127;49.372;8.166;2022-08-01T11:41:45;0.68;;;0.63;;
14100;SDS011;7127;49.372;8.166;2022-08-01T11:44:16;0.40;;;0.40;;
14100;SDS011;7127;49.372;8.166;2022-08-01T11:46:48;0.63;;;0.63;;
14100;SDS011;7127;49.372;8.166;2022-08-01T11:49:29;0.50;;;0.50;;
14100;SDS011;7127;49.372;8.166;2022-08-01T11:52:12;0.45;;;0.45;;
14100;SDS011;7127;49.372;8.166;2022-08-01T11:54:41;0.65;;;0.52;;
14100;SDS011;7127;49.372;8.166;2022-08-01T11:57:09;0.75;;;0.43;;
14100;SDS011;7127;49.372;8.166;2022-08-01T11:59:40;0.50;;;0.50;;
14100;SDS011;7127;49.372;8.166;2022-08-01T12:02:23;0.50;;;0.50;;
14100;SDS011;7127;49.372;8.166;2022-08-01T12:04:55;0.30;;;0.30;;
14100;SDS011;7127;49.372;8.166;2022-08-01T12:07:24;0.70;;;0.35;;
14100;SDS011;7127;49.372;8.166;2022-08-01T12:09:59;0.28;;;0.28;;
14100;SDS011;7127;49.372;8.166;2022-08-01T12:12:27;0.77;;;0.70;;
14100;SDS011;7127;49.372;8.166;2022-08-01T12:14:57;0.70;;;0.70;;
14100;SDS011;7127;49.372;8.166;2022-08-01T12:17:29;0.43;;;0.40;;
14100;SDS011;7127;49.372;8.166;2022-08-01T12:19:59;0.40;;;0.40;;
14100;SDS011;7127;49.372;8.166;2022-08-01T12:22:26;0.47;;;0.47;;
14100;SDS011;7127;49.372;8.166;2022-08-01T12:24:53;0.30;;;0.30;;
14100;SDS011;7127;49.372;8.166;2022-08-01T12:27:24;1.38;;;0.30;;
14100;SDS011;7127;49.372;8.166;2022-08-01T12:29:52;0.38;;;0.30;;
14100;SDS011;7127;49.372;8.166;2022-08-01T12:32:25;0.63;;;0.47;;
14100;SDS011;7127;49.372;8.166;2022-08-01T12:34:54;0.45;;;0.45;;
14100;SDS011;7127;49.372;8.166;2022-08-01T12:37:22;0.60;;;0.57;;
14100;SDS011;7127;49.372;8.166;2022-08-01T12:39:49;0.82;;;0.50;;
14100;SDS011;7127;49.372;8.166;2022-08-01T12:42:16;0.35;;;0.30;;
14100;SDS011;7127;49.372;8.166;2022-08-01T12:44:44;0.52;;;0.40;;
14100;SDS011;7127;49.372;8.166;2022-08-01T12:47:16;0.43;;;0.43;;
14100;SDS011;7127;49.372;8.166;2022-08-01T12:49:46;0.50;;;0.45;;
14100;SDS011;7127;49.372;8.166;2022-08-01T12:52:14;2.00;;;0.30;;
14100;SDS011;7127;49.372;8.166;2022-08-01T12:55:08;0.60;;;0.40;;
14100;SDS011;7127;49.372;8.166;2022-08-01T12:57:37;0.73;;;0.47;;
14100;SDS011;7127;49.372;8.166;2022-08-01T13:00:07;0.43;;;0.40;;
14100;SDS011;7127;49.372;8.166;2022-08-01T13:02:39;0.30;;;0.30;;
14100;SDS011;7127;49.372;8.166;2022-08-01T13:05:08;0.43;;;0.38;;
14100;SDS011;7127;49.372;8.166;2022-08-01T13:07:37;0.35;;;0.30;;
14100;SDS011;7127;49.372;8.166;2022-08-01T13:10:06;0.35;;;0.35;;
14100;SDS011;7127;49.372;8.166;2022-08-01T13:12:34;0.40;;;0.40;;
14100;SDS011;7127;49.372;8.166;2022-08-01T13:17:44;0.30;;;0.30;;
14100;SDS011;7127;49.372;8.166;2022-08-01T13:20:21;0.30;;;0.30;;
14100;SDS011;7127;49.372;8.166;2022-08-01T13:22:50;0.45;;;0.30;;
14100;SDS011;7127;49.372;8.166;2022-08-01T13:25:17;0.80;;;0.40;;
14100;SDS011;7127;49.372;8.166;2022-08-01T13:27:44;0.40;;;0.40;;
14100;SDS011;7127;49.372;8.166;2022-08-01T13:30:12;1.73;;;0.30;;
14100;SDS011;7127;49.372;8.166;2022-08-01T13:32:39;0.20;;;0.20;;
14100;SDS011;7127;49.372;8.166;2022-08-01T13:35:08;0.40;;;0.40;;
14100;SDS011;7127;49.372;8.166;2022-08-01T13:37:39;0.60;;;0.45;;
14100;SDS011;7127;49.372;8.166;2022-08-01T13:40:07;0.28;;;0.28;;
14100;SDS011;7127;49.372;8.166;2022-08-01T13:42:36;0.80;;;0.40;;
14100;SDS011;7127;49.372;8.166;2022-08-01T13:45:03;0.43;;;0.43;;
14100;SDS011;7127;49.372;8.166;2022-08-01T13:47:34;0.68;;;0.60;;
14100;SDS011;7127;49.372;8.166;2022-08-01T13:50:01;0.30;;;0.30;;
14100;SDS011;7127;49.372;8.166;2022-08-01T13:52:28;0.40;;;0.40;;
14100;SDS011;7127;49.372;8.166;2022-08-01T13:54:57;0.40;;;0.40;;
14100;SDS011;7127;49.372;8.166;2022-08-01T13:57:25;0.60;;;0.15;;
14100;SDS011;7127;49.372;8.166;2022-08-01T13:59:52;0.38;;;0.30;;
14100;SDS011;7127;49.372;8.166;2022-08-01T14:02:19;0.70;;;0.50;;
14100;SDS011;7127;49.372;8.166;2022-08-01T14:04:47;0.43;;;0.40;;
14100;SDS011;7127;49.372;8.166;2022-08-01T14:07:14;0.32;;;0.32;;
14100;SDS011;7127;49.372;8.166;2022-08-01T14:09:41;0.40;;;0.40;;
14100;SDS011;7127;49.372;8.166;2022-08-01T14:12:09;0.63;;;0.47;;
14100;SDS011;7127;49.372;8.166;2022-08-01T14:14:36;0.40;;;0.40;;
14100;SDS011;7127;49.372;8.166;2022-08-01T14:17:03;0.60;;;0.60;;
14100;SDS011;7127;49.372;8.166;2022-08-01T14:19:30;0.35;;;0.35;;
14100;SDS011;7127;49.372;8.166;2022-08-01T14:21:57;0.55;;;0.50;;
14100;SDS011;7127;49.372;8.166;2022-08-01T14:24:24;0.50;;;0.50;;
14100;SDS011;7127;49.372;8.166;2022-08-01T14:26:52;0.40;;;0.40;;
14100;SDS011;7127;49.372;8.166;2022-08-01T14:29:20;0.57;;;0.57;;
14100;SDS011;7127;49.372;8.166;2022-08-01T14:31:47;0.73;;;0.40;;
14100;SDS011;7127;49.372;8.166;2022-08-01T14:34:14;1.05;;;0.70;;
14100;SDS011;7127;49.372;8.166;2022-08-01T14:36:41;0.80;;;0.50;;
14100;SDS011;7127;49.372;8.166;2022-08-01T14:39:08;0.28;;;0.28;;
14100;SDS011;7127;49.372;8.166;2022-08-01T14:41:35;0.47;;;0.35;;
14100;SDS011;7127;49.372;8.166;2022-08-01T14:44:03;0.30;;;0.30;;
14100;SDS011;7127;49.372;8.166;2022-08-01T14:46:32;0.30;;;0.30;;
14100;SDS011;7127;49.372;8.166;2022-08-01T14:48:59;0.40;;;0.40;;
14100;SDS011;7127;49.372;8.166;2022-08-01T14:51:26;0.30;;;0.30;;
14100;SDS011;7127;49.372;8.166;2022-08-01T14:53:57;0.25;;;0.20;;
14100;SDS011;7127;49.372;8.166;2022-08-01T14:56:25;0.20;;;0.20;;
14100;SDS011;7127;49.372;8.166;2022-08-01T14:58:51;0.30;;;0.22;;
14100;SDS011;7127;49.372;8.166;2022-08-01T15:01:18;0.35;;;0.35;;
14100;SDS011;7127;49.372;8.166;2022-08-01T15:03:47;0.30;;;0.30;;
14100;SDS011;7127;49.372;8.166;2022-08-01T15:06:15;0.70;;;0.45;;
14100;SDS011;7127;49.372;8.166;2022-08-01T15:08:42;0.82;;;0.40;;
14100;SDS011;7127;49.372;8.166;2022-08-01T15:11:09;0.40;;;0.40;;
14100;SDS011;7127;49.372;8.166;2022-08-01T15:13:36;0.30;;;0.30;;
14100;SDS011;7127;49.372;8.166;2022-08-01T15:16:03;1.88;;;0.35;;
14100;SDS011;7127;49.372;8.166;2022-08-01T15:18:30;0.40;;;0.40;;
14100;SDS011;7127;49.372;8.166;2022-08-01T15:20:59;1.58;;;0.25;;
14100;SDS011;7127;49.372;8.166;2022-08-01T15:23:26;0.35;;;0.35;;
14100;SDS011;7127;49.372;8.166;2022-08-01T15:25:53;0.25;;;0.25;;
14100;SDS011;7127;49.372;8.166;2022-08-01T15:28:19;0.40;;;0.40;;
14100;SDS011;7127;49.372;8.166;2022-08-01T15:30:46;0.25;;;0.20;;
14100;SDS011;7127;49.372;8.166;2022-08-01T15:33:13;0.40;;;0.30;;